createdAt,value
2023-02-14T00:01:23.429Z,48.50
2023-02-14T00:03:51.423Z,53.67
2023-02-14T00:06:19.369Z,51.07
2023-02-14T00:08:47.365Z,44.23
2023-02-14T00:11:15.578Z,54.93
2023-02-14T00:14:04.253Z,56.57
2023-02-14T00:16:32.740Z,45.53
2023-02-14T00:19:06.460Z,42.47
2023-02-14T00:21:36.222Z,43.73
2023-02-14T00:24:04.170Z,45.07
2023-02-14T00:26:32.112Z,47.93
2023-02-14T00:29:00.131Z,43.23
2023-02-14T00:31:28.286Z,44.63
2023-02-14T00:33:57.813Z,42.03
2023-02-14T00:36:25.766Z,47.03
2023-02-14T00:38:53.720Z,47.07
2023-02-14T00:41:21.713Z,43.63
2023-02-14T00:43:50.253Z,46.37
2023-02-14T00:46:18.405Z,43.50
2023-02-14T00:48:46.393Z,42.77
2023-02-14T00:51:16.013Z,45.60
2023-02-14T00:53:43.956Z,42.30
2023-02-14T00:56:11.999Z,48.23
2023-02-14T00:58:40.010Z,44.57
2023-02-14T01:01:08.178Z,42.50
2023-02-14T01:03:36.216Z,43.93
2023-02-14T01:06:04.678Z,45.00
2023-02-14T01:08:34.115Z,47.23
2023-02-14T01:11:08.199Z,48.27
2023-02-14T01:13:36.135Z,45.20
2023-02-14T01:16:07.047Z,42.87
2023-02-14T01:18:35.037Z,46.83
2023-02-14T01:21:17.141Z,53.90
2023-02-14T01:23:47.167Z,45.53
2023-02-14T01:26:15.969Z,44.67
2023-02-14T01:28:44.064Z,41.90
2023-02-14T01:31:13.348Z,49.10
2023-02-14T01:33:42.061Z,43.33
2023-02-14T01:36:16.086Z,45.33
2023-02-14T01:38:44.064Z,45.17
2023-02-14T01:41:13.570Z,48.00
2023-02-14T01:43:58.790Z,42.03
2023-02-14T01:46:27.400Z,41.17
2023-02-14T01:48:56.981Z,46.57
2023-02-14T01:51:25.047Z,43.80
2023-02-14T01:53:53.681Z,41.00
2023-02-14T01:56:25.885Z,40.10
2023-02-14T01:58:55.190Z,46.50
2023-02-14T02:01:24.142Z,38.10
2023-02-14T02:03:54.315Z,44.53
2023-02-14T02:06:23.702Z,39.47
2023-02-14T02:08:54.344Z,46.50
2023-02-14T02:11:23.723Z,39.87
2023-02-14T02:13:51.710Z,42.00
2023-02-14T02:16:27.945Z,38.43
2023-02-14T02:19:01.611Z,45.43
2023-02-14T02:21:47.232Z,44.87
2023-02-14T02:24:31.355Z,47.13
2023-02-14T02:27:17.900Z,39.43
2023-02-14T02:30:03.586Z,38.80
2023-02-14T02:32:54.868Z,40.20
2023-02-14T02:35:29.906Z,38.97
2023-02-14T02:38:04.621Z,42.07
2023-02-14T02:40:38.887Z,40.37
2023-02-14T02:43:10.677Z,39.93
2023-02-14T02:46:02.699Z,39.43
2023-02-14T02:48:35.980Z,44.77
2023-02-14T02:51:24.435Z,39.97
2023-02-14T02:53:54.425Z,47.77
2023-02-14T02:56:41.656Z,44.90
2023-02-14T02:59:18.584Z,46.10
2023-02-14T03:01:49.326Z,40.93
2023-02-14T03:04:35.656Z,46.93
2023-02-14T03:07:26.162Z,46.43
2023-02-14T03:09:58.840Z,41.80
2023-02-14T03:12:51.472Z,41.13
2023-02-14T03:15:23.568Z,40.20
2023-02-14T03:17:57.081Z,40.10
2023-02-14T03:20:24.807Z,49.27
2023-02-14T03:22:58.651Z,38.70
2023-02-14T03:25:32.769Z,40.13
2023-02-14T03:28:02.629Z,37.83
2023-02-14T03:30:36.722Z,42.90
2023-02-14T03:33:06.828Z,40.43
2023-02-14T03:35:38.056Z,39.17
2023-02-14T03:38:09.440Z,40.93
2023-02-14T03:40:39.442Z,43.37
2023-02-14T03:43:10.016Z,40.70
2023-02-14T03:45:39.714Z,42.50
2023-02-14T03:48:11.072Z,46.27
2023-02-14T03:50:40.048Z,44.97
2023-02-14T03:53:10.868Z,40.53
2023-02-14T03:55:41.922Z,42.33
2023-02-14T03:58:12.104Z,37.27
2023-02-14T04:00:42.348Z,45.13
2023-02-14T04:03:12.212Z,44.27
2023-02-14T04:05:43.639Z,41.67
2023-02-14T04:08:13.233Z,43.80
2023-02-14T04:10:43.359Z,42.70
2023-02-14T04:13:11.438Z,42.47
2023-02-14T04:15:39.454Z,42.03
2023-02-14T04:18:24.788Z,39.93
2023-02-14T04:20:52.737Z,38.50
2023-02-14T04:23:22.133Z,38.17
2023-02-14T04:25:50.101Z,37.60
2023-02-14T04:28:18.082Z,46.87
2023-02-14T04:30:46.029Z,47.53
2023-02-14T04:33:14.148Z,44.93
2023-02-14T04:35:42.090Z,44.97
2023-02-14T04:38:10.089Z,44.20
2023-02-14T04:40:39.480Z,46.00
2023-02-14T04:43:08.308Z,41.30
2023-02-14T04:45:36.270Z,37.27
2023-02-14T04:48:04.356Z,40.97
2023-02-14T04:50:32.419Z,46.57
2023-02-14T04:53:00.403Z,41.10
2023-02-14T04:55:28.546Z,43.77
2023-02-14T04:57:58.061Z,37.33
2023-02-14T05:00:26.150Z,40.00
2023-02-14T05:02:54.091Z,37.47
2023-02-14T05:05:22.064Z,38.90
2023-02-14T05:07:50.056Z,47.30
2023-02-14T05:10:18.172Z,37.77
2023-02-14T05:12:46.129Z,51.00
2023-02-14T05:15:15.467Z,34.57
2023-02-14T05:17:43.469Z,38.47
2023-02-14T05:20:11.692Z,46.13
2023-02-14T05:22:39.651Z,40.97
2023-02-14T05:25:08.246Z,33.80
2023-02-14T05:27:36.199Z,35.10
2023-02-14T05:30:06.894Z,35.23
2023-02-14T05:32:36.327Z,36.40
2023-02-14T05:35:04.312Z,36.27
2023-02-14T05:37:32.381Z,37.23
2023-02-14T05:40:00.350Z,44.97
2023-02-14T05:42:28.287Z,38.90
2023-02-14T05:44:56.292Z,37.17
2023-02-14T05:47:24.268Z,34.77
2023-02-14T05:49:53.636Z,43.87
2023-02-14T05:52:21.696Z,39.83
2023-02-14T05:54:49.649Z,38.77
2023-02-14T05:57:17.708Z,43.33
2023-02-14T05:59:45.714Z,39.83
2023-02-14T06:02:14.348Z,35.03
2023-02-14T06:04:42.320Z,37.37
2023-02-14T06:07:11.860Z,38.70
2023-02-14T06:09:39.789Z,39.87
2023-02-14T06:12:08.195Z,40.17
2023-02-14T06:14:36.275Z,32.93
2023-02-14T06:17:04.355Z,34.17
2023-02-14T06:19:32.316Z,37.70
2023-02-14T06:22:00.266Z,49.83
2023-02-14T06:24:29.652Z,39.70
2023-02-14T06:26:57.698Z,38.10
2023-02-14T06:29:25.628Z,36.70
2023-02-14T06:31:53.678Z,40.00
2023-02-14T06:34:21.762Z,43.63
2023-02-14T06:36:49.819Z,40.00
2023-02-14T06:39:17.736Z,37.17
2023-02-14T06:41:47.135Z,38.07
2023-02-14T06:44:15.040Z,37.73
2023-02-14T06:46:43.000Z,35.33
2023-02-14T06:49:11.057Z,43.90
2023-02-14T06:51:39.014Z,39.40
2023-02-14T06:54:07.011Z,37.37
2023-02-14T06:56:35.028Z,40.93
2023-02-14T06:59:04.476Z,41.50
2023-02-14T07:01:32.543Z,44.00
2023-02-14T07:04:00.681Z,39.03
2023-02-14T07:06:28.670Z,46.37
2023-02-14T07:08:56.638Z,38.17
2023-02-14T07:11:24.840Z,38.27
2023-02-14T07:13:52.788Z,38.00
2023-02-14T07:16:22.206Z,42.57
2023-02-14T07:18:50.519Z,42.10
2023-02-14T07:21:18.496Z,44.07
2023-02-14T07:23:50.171Z,39.20
2023-02-14T07:26:18.363Z,44.83
2023-02-14T07:28:46.613Z,36.30
2023-02-14T07:31:14.843Z,42.17
2023-02-14T07:33:44.281Z,36.20
2023-02-14T07:36:12.590Z,38.87
2023-02-14T07:38:40.713Z,37.90
2023-02-14T07:41:08.653Z,43.87
2023-02-14T07:43:36.622Z,36.93
2023-02-14T07:46:04.749Z,37.10
2023-02-14T07:48:34.397Z,54.07
2023-02-14T07:51:04.522Z,41.37
2023-02-14T07:53:32.515Z,37.50
2023-02-14T07:56:00.472Z,39.90
2023-02-14T07:58:28.401Z,38.50
2023-02-14T08:00:56.508Z,35.83
2023-02-14T08:03:24.459Z,35.87
2023-02-14T08:05:57.462Z,44.47
2023-02-14T08:08:28.232Z,42.97
2023-02-14T08:10:56.186Z,47.73
2023-02-14T08:13:24.201Z,44.63
2023-02-14T08:16:07.756Z,42.70
2023-02-14T08:18:37.019Z,42.90
2023-02-14T08:21:05.482Z,45.60
2023-02-14T08:23:34.964Z,46.23
2023-02-14T08:26:03.316Z,49.03
2023-02-14T08:28:33.266Z,38.17
2023-02-14T08:31:01.948Z,41.03
2023-02-14T08:33:30.087Z,39.53
2023-02-14T08:35:58.064Z,39.93
2023-02-14T08:38:26.070Z,39.50
2023-02-14T08:40:55.537Z,39.37
2023-02-14T08:43:23.615Z,30.83
2023-02-14T08:45:53.695Z,39.67
2023-02-14T08:48:23.684Z,34.67
2023-02-14T08:50:51.665Z,41.07
2023-02-14T08:53:19.733Z,32.50
2023-02-14T08:55:47.698Z,35.30
2023-02-14T08:58:17.132Z,41.37
2023-02-14T09:00:45.201Z,35.93
2023-02-14T09:03:13.226Z,31.30
2023-02-14T09:05:41.243Z,28.30
2023-02-14T09:08:09.255Z,33.27
2023-02-14T09:10:37.903Z,27.57
2023-02-14T09:13:05.910Z,30.70
2023-02-14T09:15:35.315Z,32.13
2023-02-14T09:18:03.372Z,33.47
2023-02-14T09:20:31.519Z,35.03
2023-02-14T09:22:59.486Z,30.33
2023-02-14T09:25:27.585Z,34.40
2023-02-14T09:27:55.545Z,40.07
2023-02-14T09:30:23.618Z,35.03
2023-02-14T09:32:54.153Z,33.07
2023-02-14T09:35:39.843Z,34.87
2023-02-14T09:38:07.854Z,38.43
2023-02-14T09:40:35.788Z,33.40
2023-02-14T09:43:11.353Z,36.73
2023-02-14T09:45:40.089Z,38.03
2023-02-14T09:48:12.261Z,33.77
2023-02-14T09:50:43.672Z,28.57
2023-02-14T09:53:18.767Z,28.80
2023-02-14T09:55:49.797Z,32.63
2023-02-14T09:58:21.514Z,27.00
2023-02-14T10:00:53.553Z,27.03
2023-02-14T10:03:34.320Z,30.90
2023-02-14T10:06:04.528Z,31.97
2023-02-14T10:08:42.360Z,24.67
2023-02-14T10:11:12.149Z,26.80
2023-02-14T10:13:41.743Z,27.50
2023-02-14T10:16:13.082Z,26.93
2023-02-14T10:18:46.471Z,29.50
2023-02-14T10:21:17.046Z,28.07
2023-02-14T10:23:50.720Z,32.53
2023-02-14T10:26:21.044Z,54.77
2023-02-14T10:28:50.453Z,30.63
2023-02-14T10:31:22.425Z,30.97
2023-02-14T10:33:57.011Z,28.53
2023-02-14T10:36:34.532Z,33.97
2023-02-14T10:39:04.720Z,25.40
2023-02-14T10:41:39.810Z,30.83
2023-02-14T10:44:15.685Z,26.23
2023-02-14T10:46:46.660Z,26.17
2023-02-14T10:49:24.128Z,29.13
2023-02-14T10:51:53.982Z,28.83
2023-02-14T10:54:23.892Z,27.13
2023-02-14T10:56:57.020Z,27.80
2023-02-14T10:59:27.964Z,26.60
2023-02-14T11:01:56.848Z,35.17
2023-02-14T11:04:26.788Z,29.27
2023-02-14T11:06:54.739Z,29.53
2023-02-14T11:09:22.892Z,28.80
2023-02-14T11:11:52.714Z,26.23
2023-02-14T11:14:22.357Z,24.97
2023-02-14T11:16:52.160Z,30.37
2023-02-14T11:19:21.787Z,29.93
2023-02-14T11:21:51.925Z,23.20
2023-02-14T11:24:21.075Z,28.03
2023-02-14T11:26:50.040Z,26.83
2023-02-14T11:29:20.262Z,24.13
2023-02-14T11:31:48.403Z,29.93
2023-02-14T11:34:31.540Z,31.10
2023-02-14T11:37:01.615Z,31.50
2023-02-14T11:39:31.509Z,28.70
2023-02-14T11:42:00.609Z,30.70
2023-02-14T11:44:29.652Z,30.23
2023-02-14T11:46:58.641Z,31.00
2023-02-14T11:49:29.449Z,25.57
2023-02-14T11:51:58.128Z,28.00
2023-02-14T11:54:31.210Z,31.07
2023-02-14T11:57:03.725Z,32.07
2023-02-14T11:59:33.393Z,28.20
2023-02-14T12:02:06.961Z,33.13
2023-02-14T12:04:45.690Z,26.33
2023-02-14T12:07:17.351Z,26.27
2023-02-14T12:09:48.916Z,28.93
2023-02-14T12:12:19.010Z,27.80
2023-02-14T12:14:50.525Z,25.63
2023-02-14T12:17:30.079Z,26.43
2023-02-14T12:20:02.536Z,27.63
2023-02-14T12:22:32.739Z,26.03
2023-02-14T12:25:04.427Z,27.63
2023-02-14T12:27:35.627Z,26.80
2023-02-14T12:30:05.581Z,32.77
2023-02-14T12:32:33.982Z,26.53
2023-02-14T12:35:04.339Z,26.53
2023-02-14T12:37:40.398Z,25.90
2023-02-14T12:40:12.958Z,26.60
2023-02-14T12:42:49.373Z,25.57
2023-02-14T12:45:21.456Z,33.33
2023-02-14T12:47:53.882Z,23.70
2023-02-14T12:50:29.348Z,26.73
2023-02-14T12:53:04.794Z,25.33
2023-02-14T12:55:45.204Z,21.57
2023-02-14T12:58:18.419Z,25.07
2023-02-14T13:00:54.177Z,27.70
2023-02-14T13:03:28.101Z,24.93
2023-02-14T13:06:00.060Z,25.03
2023-02-14T13:08:34.910Z,27.10
2023-02-14T13:11:09.704Z,27.77
2023-02-14T13:13:42.743Z,31.27
2023-02-14T13:16:15.275Z,30.67
2023-02-14T13:18:48.436Z,24.27
2023-02-14T13:21:18.221Z,26.83
2023-02-14T13:23:47.736Z,25.60
2023-02-14T13:26:18.951Z,27.23
2023-02-14T13:28:50.914Z,27.63
2023-02-14T13:31:19.648Z,33.90
2023-02-14T13:33:50.834Z,22.97
2023-02-14T13:36:18.954Z,27.43
2023-02-14T13:38:49.401Z,24.43
2023-02-14T13:41:20.014Z,24.90
2023-02-14T13:43:57.781Z,24.80
2023-02-14T13:46:44.194Z,22.10
2023-02-14T13:49:22.227Z,23.17
2023-02-14T13:51:51.346Z,25.13
2023-02-14T13:54:23.405Z,22.80
2023-02-14T13:56:52.790Z,21.97
2023-02-14T13:59:31.286Z,30.83
2023-02-14T14:02:32.801Z,27.20
2023-02-14T14:05:00.826Z,23.83
2023-02-14T14:07:31.032Z,19.77
2023-02-14T14:10:03.004Z,22.97
2023-02-14T14:12:42.671Z,17.47
2023-02-14T14:15:12.187Z,15.43
2023-02-14T14:17:40.514Z,16.30
2023-02-14T14:20:23.310Z,14.70
2023-02-14T14:22:52.289Z,15.20
2023-02-14T14:25:31.140Z,39.10
2023-02-14T14:28:00.676Z,19.97
2023-02-14T14:30:32.204Z,35.30
2023-02-14T14:33:13.785Z,76.80
2023-02-14T14:35:41.850Z,18.77
2023-02-14T14:38:14.685Z,18.27
2023-02-14T14:40:46.707Z,31.50
2023-02-14T14:43:18.311Z,17.70
2023-02-14T14:45:47.799Z,14.13
2023-02-14T14:48:18.868Z,13.60
2023-02-14T14:50:49.157Z,21.70
2023-02-14T14:53:21.425Z,20.17
2023-02-14T14:55:52.317Z,13.87
2023-02-14T14:58:35.676Z,10.90
2023-02-14T15:01:04.093Z,10.40
2023-02-14T15:03:32.328Z,7.07
2023-02-14T15:06:08.283Z,7.87
2023-02-14T15:08:36.464Z,8.13
2023-02-14T15:11:07.724Z,12.17
2023-02-14T15:13:57.684Z,8.63
2023-02-14T15:16:27.329Z,5.90
2023-02-14T15:18:57.562Z,4.70
2023-02-14T15:21:25.920Z,8.30
2023-02-14T15:23:54.314Z,7.47
2023-02-14T15:26:25.055Z,6.17
2023-02-14T15:28:58.860Z,5.80
2023-02-14T15:31:29.523Z,4.87
2023-02-14T15:34:00.136Z,4.77
2023-02-14T15:36:28.438Z,7.30
2023-02-14T15:38:58.080Z,3.23
2023-02-14T15:41:27.010Z,3.70
2023-02-14T15:43:55.838Z,3.43
2023-02-14T15:46:30.864Z,3.93
2023-02-14T15:49:01.415Z,7.00
2023-02-14T15:51:30.591Z,6.73
2023-02-14T15:53:59.678Z,3.63
2023-02-14T15:56:29.016Z,4.50
2023-02-14T15:59:01.587Z,8.27
2023-02-14T16:01:31.614Z,4.07
2023-02-14T16:04:00.974Z,3.57
2023-02-14T16:06:36.009Z,4.97
2023-02-14T16:09:04.508Z,8.43
2023-02-14T16:11:35.504Z,11.37
2023-02-14T16:14:18.252Z,5.93
2023-02-14T16:17:01.089Z,8.63
2023-02-14T16:19:37.049Z,5.73
2023-02-14T16:22:05.243Z,3.90
2023-02-14T16:24:33.206Z,4.10
2023-02-14T16:27:07.058Z,2.73
2023-02-14T16:29:35.769Z,2.63
2023-02-14T16:32:16.208Z,4.50
2023-02-14T16:34:46.109Z,2.37
2023-02-14T16:37:20.518Z,3.17
2023-02-14T16:39:48.876Z,3.37
2023-02-14T16:42:17.701Z,1.80
2023-02-14T16:44:45.938Z,3.07
2023-02-14T16:47:15.997Z,4.20
2023-02-14T16:49:43.932Z,6.17
2023-02-14T16:52:14.044Z,3.53
2023-02-14T16:54:41.961Z,3.90
2023-02-14T16:57:12.648Z,7.83
2023-02-14T16:59:40.646Z,9.70
2023-02-14T17:02:08.621Z,4.83
2023-02-14T17:04:38.041Z,4.83
2023-02-14T17:07:07.536Z,2.93
2023-02-14T17:09:37.681Z,4.10
2023-02-14T17:12:08.609Z,3.47
2023-02-14T17:14:38.382Z,2.40
2023-02-14T17:17:06.400Z,2.93
2023-02-14T17:19:34.784Z,2.20
2023-02-14T17:22:04.678Z,2.53
2023-02-14T17:24:32.664Z,3.47
2023-02-14T17:27:00.603Z,3.30
2023-02-14T17:29:28.608Z,4.47
2023-02-14T17:31:56.695Z,4.10
2023-02-14T17:34:24.809Z,3.47
2023-02-14T17:36:52.793Z,7.63
2023-02-14T17:39:22.138Z,10.27
2023-02-14T17:41:50.132Z,3.33
2023-02-14T17:44:18.079Z,3.93
2023-02-14T17:46:46.127Z,4.53
2023-02-14T17:49:14.103Z,4.90
2023-02-14T17:51:42.197Z,5.70
2023-02-14T17:54:10.166Z,6.40
2023-02-14T17:56:39.591Z,6.13
2023-02-14T17:59:07.504Z,6.73
2023-02-14T18:01:36.520Z,3.80
2023-02-14T18:04:05.774Z,4.70
2023-02-14T18:06:33.876Z,4.47
2023-02-14T18:09:01.862Z,5.43
2023-02-14T18:11:29.900Z,4.80
2023-02-14T18:13:59.801Z,6.67
2023-02-14T18:16:27.918Z,4.47
2023-02-14T18:18:56.136Z,7.17
2023-02-14T18:21:24.781Z,6.43
2023-02-14T18:23:52.746Z,6.53
2023-02-14T18:26:20.805Z,7.33
2023-02-14T18:28:51.104Z,6.13
2023-02-14T18:31:20.703Z,7.43
2023-02-14T18:33:49.429Z,6.90
2023-02-14T18:36:18.767Z,4.37
2023-02-14T18:38:47.662Z,5.83
2023-02-14T18:41:16.479Z,4.10
2023-02-14T18:43:44.713Z,6.37
2023-02-14T18:46:13.652Z,10.67
2023-02-14T18:48:43.229Z,9.63
2023-02-14T18:51:12.080Z,5.57
2023-02-14T18:53:40.526Z,17.67
2023-02-14T18:56:09.596Z,14.50
2023-02-14T18:58:37.671Z,10.47
2023-02-14T19:01:08.969Z,8.10
2023-02-14T19:03:37.049Z,12.27
2023-02-14T19:06:06.665Z,6.60
2023-02-14T19:08:34.867Z,5.73
2023-02-14T19:11:03.303Z,9.00
2023-02-14T19:13:32.391Z,6.73
2023-02-14T19:16:00.490Z,11.07
2023-02-14T19:18:28.564Z,7.67
2023-02-14T19:20:56.537Z,7.70
2023-02-14T19:23:25.941Z,9.43
2023-02-14T19:25:54.699Z,10.23
2023-02-14T19:28:22.723Z,12.40
2023-02-14T19:30:50.683Z,9.03
2023-02-14T19:33:18.632Z,10.27
2023-02-14T19:35:46.609Z,13.83
2023-02-14T19:38:14.520Z,11.37
2023-02-14T19:40:46.329Z,10.90
2023-02-14T19:43:14.283Z,10.03
2023-02-14T19:45:42.266Z,14.37
2023-02-14T19:48:10.354Z,9.73
2023-02-14T19:50:39.479Z,12.40
2023-02-14T19:53:07.460Z,14.23
2023-02-14T19:55:35.475Z,14.83
2023-02-14T19:58:05.017Z,13.13
2023-02-14T20:00:32.996Z,14.47
2023-02-14T20:03:01.698Z,13.50
2023-02-14T20:05:30.043Z,11.33
2023-02-14T20:07:58.561Z,9.93
2023-02-14T20:10:26.735Z,14.70
2023-02-14T20:12:54.730Z,12.13
2023-02-14T20:15:26.145Z,14.90
2023-02-14T20:17:54.138Z,12.87
2023-02-14T20:20:22.051Z,10.60
2023-02-14T20:22:50.414Z,13.60
2023-02-14T20:25:18.464Z,13.63
2023-02-14T20:27:46.420Z,13.97
2023-02-14T20:30:15.005Z,14.13
2023-02-14T20:32:44.373Z,17.07
2023-02-14T20:35:13.616Z,13.07
2023-02-14T20:37:41.593Z,13.13
2023-02-14T20:40:11.036Z,14.33
2023-02-14T20:42:39.784Z,18.27
2023-02-14T20:45:08.225Z,13.33
2023-02-14T20:47:36.209Z,12.80
2023-02-14T20:50:05.968Z,13.40
2023-02-14T20:52:33.938Z,12.63
2023-02-14T20:55:01.896Z,13.33
2023-02-14T20:57:30.105Z,13.20
2023-02-14T20:59:58.033Z,13.27
2023-02-14T21:02:26.037Z,11.60
2023-02-14T21:04:53.996Z,14.77
2023-02-14T21:07:23.392Z,13.73
2023-02-14T21:09:51.337Z,12.40
2023-02-14T21:12:19.542Z,13.00
2023-02-14T21:14:47.486Z,17.67
2023-02-14T21:17:15.468Z,13.20
2023-02-14T21:19:43.385Z,15.33
2023-02-14T21:22:11.310Z,13.40
2023-02-14T21:24:41.422Z,11.20
2023-02-14T21:27:09.320Z,13.60
2023-02-14T21:29:37.222Z,15.97
2023-02-14T21:32:05.447Z,15.33
2023-02-14T21:34:33.561Z,18.53
2023-02-14T21:37:01.527Z,19.37
2023-02-14T21:39:31.213Z,14.07
2023-02-14T21:42:01.153Z,15.00
2023-02-14T21:44:46.852Z,11.97
2023-02-14T21:47:14.855Z,14.40
2023-02-14T21:50:00.184Z,16.93
2023-02-14T21:52:30.315Z,13.23
2023-02-14T21:54:58.268Z,13.93
2023-02-14T21:57:27.699Z,13.73
2023-02-14T21:59:55.656Z,15.20
2023-02-14T22:02:23.666Z,15.87
2023-02-14T22:04:51.808Z,18.97
2023-02-14T22:07:19.776Z,41.33
2023-02-14T22:09:47.805Z,22.07
2023-02-14T22:12:15.897Z,19.67
2023-02-14T22:14:45.262Z,25.23
2023-02-14T22:17:13.168Z,20.17
2023-02-14T22:19:41.287Z,23.07
2023-02-14T22:22:09.240Z,111.40
2023-02-14T22:24:37.213Z,39.77
2023-02-14T22:27:05.208Z,23.80
2023-02-14T22:29:33.147Z,26.03
2023-02-14T22:32:02.655Z,19.00
2023-02-14T22:34:30.765Z,24.30
2023-02-14T22:36:58.729Z,22.03
2023-02-14T22:39:26.700Z,22.13
2023-02-14T22:41:54.695Z,24.63
2023-02-14T22:44:22.844Z,18.80
2023-02-14T22:46:50.860Z,23.07
2023-02-14T22:49:20.288Z,20.90
2023-02-14T22:51:48.298Z,24.10
2023-02-14T22:54:16.825Z,25.97
2023-02-14T22:56:46.002Z,23.83
2023-02-14T22:59:15.680Z,20.07
2023-02-14T23:01:43.931Z,25.23
2023-02-14T23:04:12.140Z,26.27
2023-02-14T23:06:41.508Z,189.90
2023-02-14T23:09:09.873Z,28.27
2023-02-14T23:11:39.002Z,25.77
2023-02-14T23:14:24.359Z,21.00
2023-02-14T23:17:09.953Z,22.30
2023-02-14T23:19:55.312Z,20.40
2023-02-14T23:22:25.437Z,19.47
2023-02-14T23:24:54.343Z,17.67
2023-02-14T23:27:23.242Z,18.33
2023-02-14T23:29:51.234Z,23.17
2023-02-14T23:32:19.229Z,19.57
2023-02-14T23:34:47.246Z,23.67
2023-02-14T23:37:15.174Z,19.77
2023-02-14T23:39:44.535Z,20.43
2023-02-14T23:42:13.850Z,18.03
2023-02-14T23:44:42.095Z,18.50
2023-02-14T23:47:10.545Z,18.97
2023-02-14T23:49:39.599Z,20.80
2023-02-14T23:52:08.250Z,23.20
2023-02-14T23:54:36.240Z,23.37
2023-02-14T23:57:05.675Z,26.73
2023-02-14T23:59:33.622Z,26.00
